Wetterstation Vordersexau
Wetterdaten: Woche 20.04.15 - 26.04.15 (KW17)
Datum Zeit Temp. A. Feuchte A. Luftdruck Regen Wind Richtung Taupunkt Windchill Windben
20.04.2015 00:00 4,9 C 68 % 1018,2 hPa 0,0 l/m 0,0 km/h O-NO -0,5 C 4,9 C 0,0 km/h
20.04.2015 01:00 3,3 C 73 % 1018,2 hPa 0,0 l/m 0,0 km/h O-NO -1,1 C 3,3 C 0,0 km/h
20.04.2015 02:00 4,1 C 73 % 1018,6 hPa 0,0 l/m 0,0 km/h O-SO -0,3 C 4,1 C 0,0 km/h
20.04.2015 03:00 3,3 C 73 % 1018,7 hPa 0,0 l/m 0,0 km/h O-SO -1,1 C 3,3 C 0,0 km/h
20.04.2015 04:00 2,1 C 77 % 1018,8 hPa 0,0 l/m 0,0 km/h O-SO -1,5 C 2,1 C 0,0 km/h
20.04.2015 05:00 1,4 C 78 % 1019,4 hPa 0,0 l/m 0,0 km/h O-NO -2,0 C 1,4 C 0,0 km/h
20.04.2015 06:00 0,5 C 79 % 1020,1 hPa 0,0 l/m 0,0 km/h NO -2,7 C 0,5 C 0,0 km/h
20.04.2015 07:00 2,9 C 81 % 1020,9 hPa 0,0 l/m 0,0 km/h N -0,0 C 2,9 C 0,0 km/h
20.04.2015 08:00 13,8 C 56 % 1021,0 hPa 0,0 l/m 0,0 km/h W 5,2 C 13,8 C 0,0 km/h
20.04.2015 09:00 16,6 C 47 % 1021,6 hPa 0,0 l/m 0,0 km/h N-NO 5,2 C 16,6 C 0,0 km/h
20.04.2015 10:00 16,9 C 48 % 1021,4 hPa 0,0 l/m 0,0 km/h W-NW 5,8 C 16,9 C 0,0 km/h
20.04.2015 11:00 19,9 C 45 % 1021,2 hPa 0,0 l/m 10,4 km/h W 7,6 C 18,4 C 5,8 km/h
20.04.2015 12:00 21,6 C 40 % 1020,8 hPa 0,0 l/m 7,1 km/h N-NO 7,4 C 21,3 C 4,0 km/h
20.04.2015 13:00 21,1 C 36 % 1020,5 hPa 0,0 l/m 7,1 km/h N-NO 5,4 C 20,8 C 4,0 km/h
20.04.2015 14:00 22,1 C 34 % 1020,6 hPa 0,0 l/m 0,0 km/h N-NO 5,5 C 22,1 C 0,0 km/h
20.04.2015 15:00 23,0 C 32 % 1020,3 hPa 0,0 l/m 25,3 km/h N-NO 5,4 C 19,4 C 14,0 km/h
20.04.2015 16:00 23,8 C 29 % 1020,0 hPa 0,0 l/m 0,0 km/h N 4,7 C 23,8 C 0,0 km/h
20.04.2015 17:00 24,5 C 27 % 1019,9 hPa 0,0 l/m 0,0 km/h N 4,3 C 24,5 C 0,0 km/h
20.04.2015 18:00 23,3 C 26 % 1020,2 hPa 0,0 l/m 0,0 km/h N-NO 2,7 C 23,3 C 0,0 km/h
20.04.2015 19:00 20,1 C 32 % 1020,9 hPa 0,0 l/m 5,8 km/h N-NO 2,9 C 20,1 C 3,2 km/h
20.04.2015 20:00 12,6 C 42 % 1021,6 hPa 0,0 l/m 0,0 km/h N-NO 0,0 C 12,6 C 0,0 km/h
20.04.2015 21:00 8,9 C 53 % 1022,6 hPa 0,0 l/m 0,0 km/h O -0,1 C 8,9 C 0,0 km/h
20.04.2015 22:00 8,4 C 60 % 1023,2 hPa 0,0 l/m 0,0 km/h SO 1,1 C 8,4 C 0,0 km/h
20.04.2015 23:00 7,3 C 65 % 1023,4 hPa 0,0 l/m 0,0 km/h O-NO 1,2 C 7,3 C 0,0 km/h
21.04.2015 00:00 4,6 C 72 % 1023,6 hPa 0,0 l/m 0,0 km/h O-NO -0,0 C 4,6 C 0,0 km/h
21.04.2015 01:00 6,1 C 72 % 1023,7 hPa 0,0 l/m 0,0 km/h O-SO 1,4 C 6,1 C 0,0 km/h
21.04.2015 02:00 4,9 C 73 % 1023,7 hPa 0,0 l/m 0,0 km/h O-SO 0,5 C 4,9 C 0,0 km/h
21.04.2015 03:00 4,4 C 75 % 1023,6 hPa 0,0 l/m 0,0 km/h SO 0,4 C 4,4 C 0,0 km/h
21.04.2015 04:00 5,1 C 77 % 1023,6 hPa 0,0 l/m 0,0 km/h SO 1,4 C 5,1 C 0,0 km/h
21.04.2015 05:00 5,1 C 77 % 1024,0 hPa 0,0 l/m 3,9 km/h NO 1,4 C 5,1 C 2,2 km/h
21.04.2015 06:00 4,8 C 77 % 1024,7 hPa 0,0 l/m 0,0 km/h N 1,1 C 4,8 C 0,0 km/h
21.04.2015 07:00 5,0 C 78 % 1025,3 hPa 0,0 l/m 0,0 km/h N-NW 1,5 C 5,0 C 0,0 km/h
21.04.2015 08:00 14,1 C 62 % 1025,4 hPa 0,0 l/m 0,0 km/h NW 6,9 C 14,1 C 0,0 km/h
21.04.2015 09:00 16,9 C 53 % 1025,4 hPa 0,0 l/m 0,0 km/h N-NW 7,3 C 16,9 C 0,0 km/h
21.04.2015 10:00 20,1 C 47 % 1025,7 hPa 0,0 l/m 0,0 km/h S 8,4 C 20,1 C 0,0 km/h
21.04.2015 11:00 21,8 C 47 % 1025,3 hPa 0,0 l/m 0,0 km/h NO 10,0 C 21,8 C 0,0 km/h
21.04.2015 12:00 23,9 C 33 % 1024,9 hPa 0,0 l/m 0,0 km/h NO 6,6 C 23,9 C 0,0 km/h
21.04.2015 13:00 25,9 C 28 % 1024,5 hPa 0,0 l/m 0,0 km/h N-NO 6,0 C 25,9 C 0,0 km/h
21.04.2015 14:00 27,3 C 24 % 1024,1 hPa 0,0 l/m 7,8 km/h N-NO 4,9 C 27,0 C 4,3 km/h
21.04.2015 15:00 27,8 C 23 % 1023,4 hPa 0,0 l/m 0,0 km/h N-NO 4,8 C 27,8 C 0,0 km/h
21.04.2015 16:00 29,9 C 21 % 1023,3 hPa 0,0 l/m 0,0 km/h NW 5,2 C 29,9 C 0,0 km/h
21.04.2015 17:00 32,4 C 21 % 1022,8 hPa 0,0 l/m 3,2 km/h N-NO 7,2 C 32,4 C 1,8 km/h
21.04.2015 18:00 28,1 C 24 % 1022,8 hPa 0,0 l/m 0,0 km/h N-NO 5,6 C 28,1 C 0,0 km/h
21.04.2015 19:00 21,9 C 31 % 1023,2 hPa 0,0 l/m 1,3 km/h O-SO 4,0 C 21,9 C 0,7 km/h
21.04.2015 20:00 14,2 C 49 % 1023,7 hPa 0,0 l/m 0,0 km/h O-SO 3,6 C 14,2 C 0,0 km/h
21.04.2015 21:00 10,9 C 60 % 1024,4 hPa 0,0 l/m 0,0 km/h SO 3,4 C 10,9 C 0,0 km/h
21.04.2015 22:00 10,1 C 66 % 1024,8 hPa 0,0 l/m 0,0 km/h O-NO 4,0 C 10,1 C 0,0 km/h
21.04.2015 23:00 10,4 C 66 % 1024,6 hPa 0,0 l/m 0,0 km/h SO 4,3 C 10,4 C 0,0 km/h
22.04.2015 00:00 10,6 C 64 % 1024,7 hPa 0,0 l/m 13,6 km/h SO 4,1 C 6,5 C 7,6 km/h
22.04.2015 01:00 8,9 C 68 % 1024,9 hPa 0,0 l/m 0,0 km/h NO 3,3 C 8,9 C 0,0 km/h
22.04.2015 02:00 6,6 C 75 % 1024,3 hPa 0,0 l/m 0,0 km/h O-SO 2,5 C 6,6 C 0,0 km/h
22.04.2015 03:00 5,9 C 78 % 1024,2 hPa 0,0 l/m 0,0 km/h O-SO 2,4 C 5,9 C 0,0 km/h
22.04.2015 04:00 4,4 C 78 % 1023,9 hPa 0,0 l/m 0,0 km/h O-SO 0,9 C 4,4 C 0,0 km/h
22.04.2015 05:00 3,8 C 81 % 1023,3 hPa 0,0 l/m 0,0 km/h O 0,8 C 3,8 C 0,0 km/h
22.04.2015 06:00 3,6 C 82 % 1023,3 hPa 0,0 l/m 0,0 km/h O 0,8 C 3,6 C 0,0 km/h
22.04.2015 07:00 5,6 C 82 % 1023,6 hPa 0,0 l/m 0,0 km/h O 2,8 C 5,6 C 0,0 km/h
22.04.2015 08:00 17,7 C 58 % 1023,3 hPa 0,0 l/m 0,0 km/h W 9,3 C 17,7 C 0,0 km/h
22.04.2015 09:00 20,2 C 46 % 1022,8 hPa 0,0 l/m 0,0 km/h N 8,2 C 20,2 C 0,0 km/h
22.04.2015 10:00 21,3 C 43 % 1022,2 hPa 0,0 l/m 0,0 km/h N-NW 8,2 C 21,3 C 0,0 km/h
22.04.2015 11:00 20,8 C 43 % 1021,7 hPa 0,0 l/m 0,0 km/h W-NW 7,8 C 20,8 C 0,0 km/h
22.04.2015 12:00 22,4 C 43 % 1021,3 hPa 0,0 l/m 8,4 km/h W-NW 9,2 C 21,7 C 4,7 km/h
22.04.2015 13:00 23,8 C 39 % 1020,2 hPa 0,0 l/m 12,3 km/h N-NO 9,0 C 22,3 C 6,8 km/h
22.04.2015 14:00 26,3 C 23 % 1019,2 hPa 0,0 l/m 0,0 km/h N-NW 3,5 C 26,3 C 0,0 km/h
22.04.2015 15:00 25,8 C 26 % 1018,4 hPa 0,0 l/m 1,3 km/h N-NW 4,8 C 25,8 C 0,7 km/h
22.04.2015 16:00 27,6 C 20 % 1018,0 hPa 0,0 l/m 1,9 km/h N-NO 2,6 C 27,6 C 1,1 km/h
22.04.2015 17:00 27,3 C 20 % 1017,4 hPa 0,0 l/m 0,0 km/h N-NO 2,4 C 27,3 C 0,0 km/h
22.04.2015 18:00 27,8 C 20 % 1017,1 hPa 0,0 l/m 0,0 km/h N-NO 2,8 C 27,8 C 0,0 km/h
22.04.2015 19:00 21,4 C 27 % 1017,3 hPa 0,0 l/m 16,8 km/h NO 1,6 C 18,6 C 9,4 km/h
22.04.2015 20:00 13,5 C 39 % 1017,7 hPa 0,0 l/m 0,0 km/h NO -0,2 C 13,5 C 0,0 km/h
22.04.2015 21:00 10,4 C 52 % 1018,2 hPa 0,0 l/m 0,0 km/h NO 1,0 C 10,4 C 0,0 km/h
22.04.2015 22:00 6,9 C 63 % 1018,3 hPa 0,0 l/m 0,0 km/h NO 0,4 C 6,9 C 0,0 km/h
22.04.2015 23:00 7,2 C 64 % 1018,1 hPa 0,0 l/m 0,0 km/h SO 0,9 C 7,2 C 0,0 km/h
23.04.2015 00:00 5,5 C 67 % 1018,5 hPa 0,0 l/m 0,0 km/h O-NO -0,1 C 5,5 C 0,0 km/h
23.04.2015 01:00 4,8 C 72 % 1018,1 hPa 0,0 l/m 0,0 km/h O-NO 0,2 C 4,8 C 0,0 km/h
23.04.2015 02:00 3,2 C 76 % 1017,7 hPa 0,0 l/m 0,0 km/h O-NO -0,6 C 3,2 C 0,0 km/h
23.04.2015 03:00 1,9 C 77 % 1017,5 hPa 0,0 l/m 0,0 km/h O-NO -1,7 C 1,9 C 0,0 km/h
23.04.2015 04:00 2,6 C 80 % 1016,9 hPa 0,0 l/m 0,0 km/h O-NO -0,5 C 2,6 C 0,0 km/h
23.04.2015 05:00 1,6 C 80 % 1017,0 hPa 0,0 l/m 0,0 km/h O-NO -1,5 C 1,6 C 0,0 km/h
23.04.2015 06:00 1,5 C 82 % 1016,9 hPa 0,0 l/m 0,0 km/h O-NO -1,2 C 1,5 C 0,0 km/h
23.04.2015 07:00 3,6 C 84 % 1016,7 hPa 0,0 l/m 0,0 km/h NO 1,2 C 3,6 C 0,0 km/h
23.04.2015 08:00 15,4 C 56 % 1016,7 hPa 0,0 l/m 0,0 km/h N-NO 6,7 C 15,4 C 0,0 km/h
23.04.2015 09:00 15,6 C 50 % 1016,3 hPa 0,0 l/m 0,0 km/h W 5,2 C 15,6 C 0,0 km/h
23.04.2015 10:00 18,7 C 45 % 1015,9 hPa 0,0 l/m 0,0 km/h S-SW 6,5 C 18,7 C 0,0 km/h
23.04.2015 11:00 18,5 C 45 % 1015,4 hPa 0,0 l/m 3,2 km/h W 6,3 C 18,5 C 1,8 km/h
23.04.2015 12:00 19,2 C 43 % 1014,7 hPa 0,0 l/m 13,6 km/h W-NW 6,3 C 16,6 C 7,6 km/h
23.04.2015 13:00 20,9 C 39 % 1014,0 hPa 0,0 l/m 7,8 km/h W-NW 6,4 C 20,4 C 4,3 km/h
23.04.2015 14:00 22,1 C 35 % 1013,3 hPa 0,0 l/m 0,0 km/h NW 5,9 C 22,1 C 0,0 km/h
23.04.2015 15:00 22,1 C 34 % 1012,8 hPa 0,0 l/m 0,0 km/h W-NW 5,5 C 22,1 C 0,0 km/h
23.04.2015 16:00 23,4 C 30 % 1012,5 hPa 0,0 l/m 7,1 km/h N 4,8 C 23,2 C 4,0 km/h
23.04.2015 17:00 25,9 C 24 % 1012,3 hPa 0,0 l/m 1,9 km/h N-NO 3,8 C 25,9 C 1,1 km/h
23.04.2015 18:00 25,3 C 24 % 1012,1 hPa 0,0 l/m 1,9 km/h N-NO 3,3 C 25,3 C 1,1 km/h
23.04.2015 19:00 19,4 C 33 % 1012,2 hPa 0,0 l/m 0,0 km/h N 2,7 C 19,4 C 0,0 km/h
23.04.2015 20:00 12,0 C 49 % 1012,8 hPa 0,0 l/m 0,0 km/h O-NO 1,6 C 12,0 C 0,0 km/h
23.04.2015 21:00 8,1 C 64 % 1013,2 hPa 0,0 l/m 0,0 km/h O-NO 1,7 C 8,1 C 0,0 km/h
23.04.2015 22:00 6,6 C 70 % 1013,4 hPa 0,0 l/m 0,0 km/h SO 1,5 C 6,6 C 0,0 km/h
23.04.2015 23:00 6,1 C 72 % 1013,6 hPa 0,0 l/m 0,0 km/h O 1,4 C 6,1 C 0,0 km/h
24.04.2015 00:00 6,4 C 71 % 1013,4 hPa 0,0 l/m 0,0 km/h O-NO 1,5 C 6,4 C 0,0 km/h
24.04.2015 01:00 6,8 C 70 % 1013,3 hPa 0,0 l/m 0,0 km/h O-NO 1,7 C 6,8 C 0,0 km/h
24.04.2015 02:00 3,7 C 73 % 1013,4 hPa 0,0 l/m 0,0 km/h O-NO -0,7 C 3,7 C 0,0 km/h
24.04.2015 03:00 3,5 C 78 % 1013,3 hPa 0,0 l/m 0,0 km/h O 0,0 C 3,5 C 0,0 km/h
24.04.2015 04:00 2,9 C 79 % 1013,3 hPa 0,0 l/m 0,0 km/h O -0,4 C 2,9 C 0,0 km/h
24.04.2015 05:00 2,5 C 81 % 1013,3 hPa 0,0 l/m 0,0 km/h O-NO -0,4 C 2,5 C 0,0 km/h
24.04.2015 06:00 2,1 C 82 % 1013,6 hPa 0,0 l/m 0,0 km/h O-SO -0,6 C 2,1 C 0,0 km/h
24.04.2015 07:00 5,0 C 82 % 1014,0 hPa 0,0 l/m 0,0 km/h SO 2,2 C 5,0 C 0,0 km/h
24.04.2015 08:00 16,1 C 59 % 1014,1 hPa 0,0 l/m 0,0 km/h W-NW 8,1 C 16,1 C 0,0 km/h
24.04.2015 09:00 20,5 C 43 % 1014,0 hPa 0,0 l/m 0,0 km/h W 7,5 C 20,5 C 0,0 km/h
24.04.2015 10:00 21,7 C 39 % 1014,0 hPa 0,0 l/m 0,0 km/h W 7,1 C 21,7 C 0,0 km/h
24.04.2015 11:00 21,0 C 40 % 1013,9 hPa 0,0 l/m 0,0 km/h W 6,9 C 21,0 C 0,0 km/h
24.04.2015 12:00 22,4 C 35 % 1013,1 hPa 0,0 l/m 0,0 km/h W-NW 6,2 C 22,4 C 0,0 km/h
24.04.2015 13:00 24,3 C 30 % 1012,4 hPa 0,0 l/m 5,2 km/h W-NW 5,6 C 24,3 C 2,9 km/h
24.04.2015 14:00 26,3 C 23 % 1011,9 hPa 0,0 l/m 0,0 km/h W-NW 3,5 C 26,3 C 0,0 km/h
24.04.2015 15:00 25,9 C 27 % 1011,2 hPa 0,0 l/m 7,8 km/h W-SW 5,5 C 25,6 C 4,3 km/h
24.04.2015 16:00 27,1 C 26 % 1010,7 hPa 0,0 l/m 7,1 km/h SO 5,9 C 27,0 C 4,0 km/h
24.04.2015 17:00 29,8 C 23 % 1010,3 hPa 0,0 l/m 0,0 km/h O-SO 6,4 C 29,8 C 0,0 km/h
24.04.2015 18:00 28,3 C 23 % 1010,0 hPa 0,0 l/m 0,0 km/h O-SO 5,2 C 28,3 C 0,0 km/h
24.04.2015 19:00 22,5 C 35 % 1009,6 hPa 0,0 l/m 24,6 km/h SO 6,3 C 18,8 C 13,7 km/h
24.04.2015 20:00 13,6 C 53 % 1009,7 hPa 0,0 l/m 0,0 km/h O-SO 4,2 C 13,6 C 0,0 km/h
24.04.2015 21:00 11,6 C 59 % 1009,8 hPa 0,0 l/m 0,0 km/h SO 3,9 C 11,6 C 0,0 km/h
24.04.2015 22:00 10,7 C 62 % 1010,0 hPa 0,0 l/m 0,0 km/h O-NO 3,7 C 10,7 C 0,0 km/h
24.04.2015 23:00 9,6 C 64 % 1010,0 hPa 0,0 l/m 0,0 km/h O-SO 3,1 C 9,6 C 0,0 km/h
25.04.2015 00:00 8,9 C 66 % 1009,8 hPa 0,0 l/m 0,0 km/h O 2,9 C 8,9 C 0,0 km/h
25.04.2015 01:00 8,4 C 67 % 1009,5 hPa 0,0 l/m 0,0 km/h SO 2,6 C 8,4 C 0,0 km/h
25.04.2015 02:00 7,9 C 69 % 1009,1 hPa 0,0 l/m 0,0 km/h O-SO 2,6 C 7,9 C 0,0 km/h
25.04.2015 03:00 7,3 C 71 % 1008,8 hPa 0,0 l/m 0,0 km/h O-SO 2,4 C 7,3 C 0,0 km/h
25.04.2015 04:00 8,1 C 72 % 1009,4 hPa 0,0 l/m 0,0 km/h SO 3,4 C 8,1 C 0,0 km/h
25.04.2015 05:00 8,8 C 72 % 1009,3 hPa 0,0 l/m 0,0 km/h S-SO 4,0 C 8,8 C 0,0 km/h
25.04.2015 06:00 9,5 C 71 % 1010,1 hPa 0,0 l/m 0,0 km/h SO 4,5 C 9,5 C 0,0 km/h
25.04.2015 07:00 10,3 C 75 % 1009,5 hPa 0,0 l/m 1,3 km/h SO 6,1 C 10,3 C 0,7 km/h
25.04.2015 08:00 11,4 C 78 % 1010,0 hPa 0,0 l/m 0,0 km/h S-SO 7,7 C 11,4 C 0,0 km/h
25.04.2015 09:00 15,1 C 77 % 1010,1 hPa 0,0 l/m 0,0 km/h N 11,1 C 15,1 C 0,0 km/h
25.04.2015 10:00 15,8 C 76 % 1009,8 hPa 0,4 l/m 0,0 km/h W-NW 11,6 C 15,8 C 0,0 km/h
25.04.2015 11:00 19,4 C 62 % 1009,7 hPa 0,0 l/m 20,7 km/h W-SW 11,9 C 15,3 C 11,5 km/h
25.04.2015 12:00 18,7 C 61 % 1009,6 hPa 0,0 l/m 14,3 km/h W-NW 11,0 C 15,9 C 7,9 km/h
25.04.2015 13:00 17,8 C 67 % 1009,5 hPa 0,0 l/m 6,5 km/h W-SW 11,6 C 17,8 C 3,6 km/h
25.04.2015 14:00 15,5 C 76 % 1009,8 hPa 0,4 l/m 3,2 km/h S 11,3 C 15,5 C 1,8 km/h
25.04.2015 15:00 15,6 C 79 % 1009,5 hPa 0,0 l/m 0,0 km/h S-SW 12,0 C 15,6 C 0,0 km/h
25.04.2015 16:00 14,6 C 80 % 1009,3 hPa 0,4 l/m 0,0 km/h W 11,2 C 14,6 C 0,0 km/h
25.04.2015 17:00 16,9 C 76 % 1008,9 hPa 0,0 l/m 0,0 km/h S 12,6 C 16,9 C 0,0 km/h
25.04.2015 18:00 14,8 C 79 % 1008,6 hPa 0,0 l/m 1,3 km/h S 11,2 C 14,8 C 0,7 km/h
25.04.2015 19:00 14,3 C 79 % 1008,9 hPa 0,0 l/m 4,5 km/h S-SW 10,7 C 14,3 C 2,5 km/h
25.04.2015 20:00 12,9 C 83 % 1009,6 hPa 0,4 l/m 7,1 km/h SO 10,1 C 12,5 C 4,0 km/h
25.04.2015 21:00 12,1 C 84 % 1009,8 hPa 0,8 l/m 0,0 km/h N-NO 9,5 C 12,1 C 0,0 km/h
25.04.2015 22:00 11,8 C 83 % 1009,9 hPa 0,4 l/m 0,0 km/h N-NO 9,0 C 11,8 C 0,0 km/h
25.04.2015 23:00 11,6 C 83 % 1009,9 hPa 0,0 l/m 0,0 km/h N-NO 8,8 C 11,6 C 0,0 km/h
26.04.2015 00:00 11,8 C 83 % 1010,2 hPa 0,0 l/m 0,0 km/h N-NO 9,0 C 11,8 C 0,0 km/h
26.04.2015 01:00 11,8 C 83 % 1009,5 hPa 0,0 l/m 0,0 km/h NO 9,0 C 11,8 C 0,0 km/h
26.04.2015 02:00 11,6 C 82 % 1009,2 hPa 0,0 l/m 0,0 km/h NO 8,6 C 11,6 C 0,0 km/h
26.04.2015 03:00 11,5 C 81 % 1009,0 hPa 0,0 l/m 0,0 km/h N-NO 8,4 C 11,5 C 0,0 km/h
26.04.2015 04:00 10,9 C 81 % 1008,9 hPa 0,0 l/m 0,0 km/h N-NO 7,8 C 10,9 C 0,0 km/h
26.04.2015 05:00 9,9 C 81 % 1008,5 hPa 0,0 l/m 0,0 km/h NO 6,8 C 9,9 C 0,0 km/h
26.04.2015 06:00 9,9 C 80 % 1008,4 hPa 0,0 l/m 0,0 km/h O-SO 6,6 C 9,9 C 0,0 km/h
26.04.2015 07:00 11,3 C 76 % 1008,5 hPa 0,0 l/m 0,0 km/h SO 7,2 C 11,3 C 0,0 km/h
26.04.2015 08:00 18,9 C 78 % 1008,1 hPa 0,0 l/m 0,0 km/h S 15,0 C 18,9 C 0,0 km/h
26.04.2015 09:00 22,4 C 58 % 1007,9 hPa 0,0 l/m 8,4 km/h W-SW 13,7 C 21,7 C 4,7 km/h
26.04.2015 10:00 20,9 C 58 % 1007,7 hPa 0,0 l/m 14,9 km/h W 12,3 C 18,4 C 8,3 km/h
26.04.2015 11:00 20,3 C 58 % 1007,3 hPa 0,0 l/m 7,1 km/h S-SW 11,8 C 20,0 C 4,0 km/h
26.04.2015 12:00 21,5 C 55 % 1006,7 hPa 0,0 l/m 15,6 km/h SW 12,1 C 18,9 C 8,6 km/h
26.04.2015 13:00 23,3 C 52 % 1005,7 hPa 0,0 l/m 0,0 km/h S-SW 12,9 C 23,3 C 0,0 km/h
26.04.2015 14:00 25,6 C 46 % 1004,8 hPa 0,0 l/m 0,0 km/h W 13,1 C 25,6 C 0,0 km/h
26.04.2015 15:00 24,3 C 45 % 1003,9 hPa 0,0 l/m 22,0 km/h W 11,6 C 21,5 C 12,2 km/h
26.04.2015 16:00 23,3 C 49 % 1003,1 hPa 0,0 l/m 0,0 km/h W 12,0 C 23,3 C 0,0 km/h
26.04.2015 17:00 19,4 C 57 % 1002,7 hPa 0,0 l/m 1,3 km/h W 10,7 C 19,4 C 0,7 km/h
26.04.2015 18:00 17,2 C 67 % 1002,7 hPa 0,0 l/m 0,0 km/h N 11,0 C 17,2 C 0,0 km/h
26.04.2015 19:00 16,3 C 72 % 1002,1 hPa 0,0 l/m 0,0 km/h N-NO 11,2 C 16,3 C 0,0 km/h
26.04.2015 20:00 14,3 C 79 % 1001,8 hPa 0,0 l/m 0,0 km/h N-NO 10,7 C 14,3 C 0,0 km/h
26.04.2015 21:00 13,1 C 80 % 1002,1 hPa 0,0 l/m 0,0 km/h NO 9,7 C 13,1 C 0,0 km/h
26.04.2015 22:00 12,8 C 82 % 1001,4 hPa 0,0 l/m 0,0 km/h W-SW 9,8 C 12,8 C 0,0 km/h
26.04.2015 23:00 12,9 C 83 % 1001,8 hPa 0,0 l/m 0,0 km/h S-SO 10,1 C 12,9 C 0,0 km/h
Min-Datum _ 20.04.15 22.04.15 26.04.15 - 20.04.15 - 20.04.15 20.04.15 20.04.15
_ Min-Zeit 06:51 16:51 22:51 - 00:51 - 06:51 06:51 00:51
Minimum _ 0,5 C 20 % 1001,4 hPa - 0,0 km/h - -2,7 C 0,5 C 0,0 km/h
Max-Datum _ 21.04.15 23.04.15 21.04.15 25.04.15 20.04.15 - 26.04.15 21.04.15 20.04.15
_ Max-Zeit 17:51 07:51 10:51 21:51 15:51 - 08:51 17:51 15:51
Maximum _ 32,4 C 84 % 1025,7 hPa 0,8 l/m 25,3 km/h
N-NO
- 15,0 C 32,4 C 14,0 km/h
N-NO
Durchschnitt _ 14,4 C 58 % 1015,5 hPa #2,9 l/m 2,0 km/h N-NO 5,1 C 14,2 C 1,1 km/h
www.sexauwetter.de